sensor_id;sensor_type;location;lat;lon;timestamp;pressure;altitude;pressure_sealevel;temperature;humidity
6500;BME280;3283;52.330;9.772;2024-01-25T00:01:37;100691.88;;;5.38;100.00
6500;BME280;3283;52.330;9.772;2024-01-25T00:04:03;100684.88;;;5.34;100.00
6500;BME280;3283;52.330;9.772;2024-01-25T00:06:28;100698.69;;;5.24;100.00
6500;BME280;3283;52.330;9.772;2024-01-25T00:08:54;100696.88;;;5.17;100.00
6500;BME280;3283;52.330;9.772;2024-01-25T00:11:19;100703.84;;;5.16;100.00
6500;BME280;3283;52.330;9.772;2024-01-25T00:13:45;100682.25;;;5.30;100.00
6500;BME280;3283;52.330;9.772;2024-01-25T00:16:10;100689.94;;;5.16;100.00
6500;BME280;3283;52.330;9.772;2024-01-25T00:18:35;100691.63;;;5.12;100.00
6500;BME280;3283;52.330;9.772;2024-01-25T00:21:01;100675.16;;;5.19;100.00
6500;BME280;3283;52.330;9.772;2024-01-25T00:23:26;100689.94;;;5.20;100.00
6500;BME280;3283;52.330;9.772;2024-01-25T00:25:52;100686.53;;;5.24;100.00
6500;BME280;3283;52.330;9.772;2024-01-25T00:28:17;100685.53;;;5.13;100.00
6500;BME280;3283;52.330;9.772;2024-01-25T00:30:43;100690.59;;;5.00;100.00
6500;BME280;3283;52.330;9.772;2024-01-25T00:33:08;100689.88;;;5.11;100.00
6500;BME280;3283;52.330;9.772;2024-01-25T00:35:34;100707.28;;;5.14;100.00
6500;BME280;3283;52.330;9.772;2024-01-25T00:37:59;100686.53;;;5.24;100.00
6500;BME280;3283;52.330;9.772;2024-01-25T00:40:26;100687.34;;;5.20;100.00
6500;BME280;3283;52.330;9.772;2024-01-25T00:42:51;100692.47;;;5.11;100.00
6500;BME280;3283;52.330;9.772;2024-01-25T00:45:21;100700.28;;;5.10;100.00
6500;BME280;3283;52.330;9.772;2024-01-25T00:47:47;100708.00;;;4.99;100.00
6500;BME280;3283;52.330;9.772;2024-01-25T00:50:13;100708.03;;;5.01;100.00
6500;BME280;3283;52.330;9.772;2024-01-25T00:52:39;100695.09;;;5.10;100.00
6500;BME280;3283;52.330;9.772;2024-01-25T00:55:05;100706.41;;;5.12;100.00
6500;BME280;3283;52.330;9.772;2024-01-25T00:57:31;100728.94;;;5.05;100.00
6500;BME280;3283;52.330;9.772;2024-01-25T00:59:57;100720.38;;;5.17;100.00
6500;BME280;3283;52.330;9.772;2024-01-25T01:02:23;100723.78;;;5.11;100.00
6500;BME280;3283;52.330;9.772;2024-01-25T01:04:49;100721.06;;;5.01;100.00
6500;BME280;3283;52.330;9.772;2024-01-25T01:07:15;100704.50;;;4.99;100.00
6500;BME280;3283;52.330;9.772;2024-01-25T01:09:40;100713.28;;;5.07;100.00
6500;BME280;3283;52.330;9.772;2024-01-25T01:12:06;100722.91;;;5.11;100.00
6500;BME280;3283;52.330;9.772;2024-01-25T01:14:32;100720.22;;;5.02;100.00
6500;BME280;3283;52.330;9.772;2024-01-25T01:16:57;100721.13;;;5.07;100.00
6500;BME280;3283;52.330;9.772;2024-01-25T01:19:23;100701.03;;;4.98;100.00
6500;BME280;3283;52.330;9.772;2024-01-25T01:21:48;100705.19;;;4.79;100.00
6500;BME280;3283;52.330;9.772;2024-01-25T01:24:13;100706.09;;;4.86;100.00
6500;BME280;3283;52.330;9.772;2024-01-25T01:26:39;100699.19;;;4.86;100.00
6500;BME280;3283;52.330;9.772;2024-01-25T01:29:06;100709.47;;;4.77;100.00
6500;BME280;3283;52.330;9.772;2024-01-25T01:31:31;100708.50;;;4.66;100.00
6500;BME280;3283;52.330;9.772;2024-01-25T01:33:57;100694.50;;;4.61;100.00
6500;BME280;3283;52.330;9.772;2024-01-25T01:36:23;100693.56;;;4.53;100.00
6500;BME280;3283;52.330;9.772;2024-01-25T01:38:49;100694.44;;;4.55;100.00
6500;BME280;3283;52.330;9.772;2024-01-25T01:41:14;100719.72;;;4.62;100.00
6500;BME280;3283;52.330;9.772;2024-01-25T01:43:40;100717.22;;;4.71;100.00
6500;BME280;3283;52.330;9.772;2024-01-25T01:46:29;100729.38;;;4.69;100.00
6500;BME280;3283;52.330;9.772;2024-01-25T01:48:57;100717.22;;;4.71;100.00
6500;BME280;3283;52.330;9.772;2024-01-25T01:51:23;100721.53;;;4.67;100.00
6500;BME280;3283;52.330;9.772;2024-01-25T01:53:49;100726.69;;;4.63;100.00
6500;BME280;3283;52.330;9.772;2024-01-25T01:56:16;100721.44;;;4.58;100.00
6500;BME280;3283;52.330;9.772;2024-01-25T01:58:42;100742.22;;;4.55;100.00
6500;BME280;3283;52.330;9.772;2024-01-25T02:01:07;100736.97;;;4.52;100.00
6500;BME280;3283;52.330;9.772;2024-01-25T02:03:33;100739.63;;;4.57;100.00
6500;BME280;3283;52.330;9.772;2024-01-25T02:06:00;100744.75;;;4.51;100.00
6500;BME280;3283;52.330;9.772;2024-01-25T02:08:28;100743.97;;;4.56;100.00
6500;BME280;3283;52.330;9.772;2024-01-25T02:10:54;100744.88;;;4.58;100.00
6500;BME280;3283;52.330;9.772;2024-01-25T02:13:21;100749.34;;;4.67;100.00
6500;BME280;3283;52.330;9.772;2024-01-25T02:15:46;100758.56;;;4.44;100.00
6500;BME280;3283;52.330;9.772;2024-01-25T02:18:11;100761.22;;;4.47;100.00
6500;BME280;3283;52.330;9.772;2024-01-25T02:20:37;100760.63;;;4.67;100.00
6500;BME280;3283;52.330;9.772;2024-01-25T02:23:02;100778.69;;;4.55;100.00
6500;BME280;3283;52.330;9.772;2024-01-25T02:25:27;100764.91;;;4.64;100.00
6500;BME280;3283;52.330;9.772;2024-01-25T02:27:53;100764.06;;;4.65;100.00
6500;BME280;3283;52.330;9.772;2024-01-25T02:30:18;100790.84;;;4.53;100.00
6500;BME280;3283;52.330;9.772;2024-01-25T02:32:43;100784.88;;;4.60;100.00
6500;BME280;3283;52.330;9.772;2024-01-25T02:35:09;100776.13;;;4.57;100.00
6500;BME280;3283;52.330;9.772;2024-01-25T02:37:34;100763.81;;;4.47;100.00
6500;BME280;3283;52.330;9.772;2024-01-25T02:40:00;100778.59;;;4.46;100.00
6500;BME280;3283;52.330;9.772;2024-01-25T02:42:25;100770.91;;;4.57;100.00
6500;BME280;3283;52.330;9.772;2024-01-25T02:44:51;100776.09;;;4.54;100.00
6500;BME280;3283;52.330;9.772;2024-01-25T02:47:16;100782.31;;;4.65;100.00
6500;BME280;3283;52.330;9.772;2024-01-25T02:49:41;100776.16;;;4.58;100.00
6500;BME280;3283;52.330;9.772;2024-01-25T02:52:07;100797.06;;;4.63;100.00
6500;BME280;3283;52.330;9.772;2024-01-25T02:54:35;100809.13;;;4.58;100.00
6500;BME280;3283;52.330;9.772;2024-01-25T02:57:04;100790.00;;;4.57;100.00
6500;BME280;3283;52.330;9.772;2024-01-25T02:59:29;100796.09;;;4.56;100.00
6500;BME280;3283;52.330;9.772;2024-01-25T03:01:55;100779.38;;;4.40;100.00
6500;BME280;3283;52.330;9.772;2024-01-25T03:04:20;100798.69;;;4.55;100.00
6500;BME280;3283;52.330;9.772;2024-01-25T03:06:45;100802.16;;;4.54;100.00
6500;BME280;3283;52.330;9.772;2024-01-25T03:09:11;100777.84;;;4.55;100.00
6500;BME280;3283;52.330;9.772;2024-01-25T03:11:36;100791.63;;;4.48;100.00
6500;BME280;3283;52.330;9.772;2024-01-25T03:14:02;100783.81;;;4.48;100.00
6500;BME280;3283;52.330;9.772;2024-01-25T03:16:27;100790.75;;;4.46;100.00
6500;BME280;3283;52.330;9.772;2024-01-25T03:18:53;100814.97;;;4.41;100.00
6500;BME280;3283;52.330;9.772;2024-01-25T03:21:18;100799.47;;;4.51;100.00
6500;BME280;3283;52.330;9.772;2024-01-25T03:23:43;100799.25;;;4.35;100.00
6500;BME280;3283;52.330;9.772;2024-01-25T03:26:09;100796.84;;;4.48;100.00
6500;BME280;3283;52.330;9.772;2024-01-25T03:28:34;100792.47;;;4.45;100.00
6500;BME280;3283;52.330;9.772;2024-01-25T03:31:01;100817.69;;;4.48;100.00
6500;BME280;3283;52.330;9.772;2024-01-25T03:33:26;100811.38;;;4.33;100.00
6500;BME280;3283;52.330;9.772;2024-01-25T03:35:53;100802.81;;;4.39;100.00
6500;BME280;3283;52.330;9.772;2024-01-25T03:38:19;100808.66;;;4.24;100.00
6500;BME280;3283;52.330;9.772;2024-01-25T03:40:44;100818.91;;;4.15;100.00
6500;BME280;3283;52.330;9.772;2024-01-25T03:43:10;100823.53;;;4.33;100.00
6500;BME280;3283;52.330;9.772;2024-01-25T03:45:35;100831.25;;;4.25;100.00
6500;BME280;3283;52.330;9.772;2024-01-25T03:48:00;100819.75;;;4.14;100.00
6500;BME280;3283;52.330;9.772;2024-01-25T03:50:27;100816.03;;;3.98;100.00
6500;BME280;3283;52.330;9.772;2024-01-25T03:52:53;100827.69;;;4.22;100.00
6500;BME280;3283;52.330;9.772;2024-01-25T03:55:18;100830.81;;;4.01;100.00
6500;BME280;3283;52.330;9.772;2024-01-25T03:57:44;100818.97;;;4.18;100.00
6500;BME280;3283;52.330;9.772;2024-01-25T04:00:10;100824.09;;;4.15;100.00
6500;BME280;3283;52.330;9.772;2024-01-25T04:02:36;100823.81;;;3.97;100.00
6500;BME280;3283;52.330;9.772;2024-01-25T04:05:02;100824.97;;;4.14;100.00
6500;BME280;3283;52.330;9.772;2024-01-25T04:07:28;100823.84;;;4.00;100.00
6500;BME280;3283;52.330;9.772;2024-01-25T04:09:53;100801.28;;;3.99;100.00
6500;BME280;3283;52.330;9.772;2024-01-25T04:12:18;100815.94;;;3.94;100.00
6500;BME280;3283;52.330;9.772;2024-01-25T04:14:44;100820.50;;;4.05;100.00
6500;BME280;3283;52.330;9.772;2024-01-25T04:17:09;100830.06;;;4.08;100.00
6500;BME280;3283;52.330;9.772;2024-01-25T04:19:35;100834.28;;;4.00;100.00
6500;BME280;3283;52.330;9.772;2024-01-25T04:22:01;100826.44;;;3.98;100.00
6500;BME280;3283;52.330;9.772;2024-01-25T04:24:26;100823.59;;;3.84;100.00
6500;BME280;3283;52.330;9.772;2024-01-25T04:26:52;100832.34;;;3.88;100.00
6500;BME280;3283;52.330;9.772;2024-01-25T04:29:17;100839.38;;;3.94;100.00
6500;BME280;3283;52.330;9.772;2024-01-25T04:31:43;100828.97;;;3.94;100.00
6500;BME280;3283;52.330;9.772;2024-01-25T04:34:10;100836.22;;;4.11;100.00
6500;BME280;3283;52.330;9.772;2024-01-25T04:36:36;100849.91;;;4.00;100.00
6500;BME280;3283;52.330;9.772;2024-01-25T04:39:01;100850.59;;;3.90;100.00
6500;BME280;3283;52.330;9.772;2024-01-25T04:41:27;100856.41;;;3.75;100.00
6500;BME280;3283;52.330;9.772;2024-01-25T04:43:52;100853.75;;;3.73;100.00
6500;BME280;3283;52.330;9.772;2024-01-25T04:46:17;100863.38;;;3.77;100.00
6500;BME280;3283;52.330;9.772;2024-01-25T04:48:43;100851.94;;;3.68;100.00
6500;BME280;3283;52.330;9.772;2024-01-25T04:51:15;100859.16;;;3.84;100.00
6500;BME280;3283;52.330;9.772;2024-01-25T04:53:40;100851.97;;;3.71;100.00
6500;BME280;3283;52.330;9.772;2024-01-25T04:56:05;100867.31;;;3.55;100.00
6500;BME280;3283;52.330;9.772;2024-01-25T04:58:31;100872.06;;;3.76;100.00
6500;BME280;3283;52.330;9.772;2024-01-25T05:00:56;100867.63;;;3.72;100.00
6500;BME280;3283;52.330;9.772;2024-01-25T05:03:22;100879.75;;;3.70;100.00
6500;BME280;3283;52.330;9.772;2024-01-25T05:05:47;100877.97;;;3.68;100.00
6500;BME280;3283;52.330;9.772;2024-01-25T05:08:13;100890.94;;;3.66;100.00
6500;BME280;3283;52.330;9.772;2024-01-25T05:10:38;100895.38;;;3.72;100.00
6500;BME280;3283;52.330;9.772;2024-01-25T05:13:03;100907.75;;;3.83;100.00
6500;BME280;3283;52.330;9.772;2024-01-25T05:15:29;100911.00;;;3.73;100.00
6500;BME280;3283;52.330;9.772;2024-01-25T05:17:54;100911.09;;;3.76;100.00
6500;BME280;3283;52.330;9.772;2024-01-25T05:20:19;100915.16;;;3.62;100.00
6500;BME280;3283;52.330;9.772;2024-01-25T05:22:45;100909.00;;;3.58;100.00
6500;BME280;3283;52.330;9.772;2024-01-25T05:25:11;100924.00;;;3.72;100.00
6500;BME280;3283;52.330;9.772;2024-01-25T05:27:36;100921.41;;;3.72;100.00
6500;BME280;3283;52.330;9.772;2024-01-25T05:30:02;100935.16;;;3.66;100.00
6500;BME280;3283;52.330;9.772;2024-01-25T05:32:28;100933.50;;;3.68;100.00
6500;BME280;3283;52.330;9.772;2024-01-25T05:34:54;100929.06;;;3.64;100.00
6500;BME280;3283;52.330;9.772;2024-01-25T05:37:19;100928.09;;;3.59;100.00
6500;BME280;3283;52.330;9.772;2024-01-25T05:39:44;100938.81;;;3.74;100.00
6500;BME280;3283;52.330;9.772;2024-01-25T05:42:10;100946.72;;;3.80;100.00
6500;BME280;3283;52.330;9.772;2024-01-25T05:44:35;100940.44;;;3.69;100.00
6500;BME280;3283;52.330;9.772;2024-01-25T05:47:01;100950.41;;;3.48;100.00
6500;BME280;3283;52.330;9.772;2024-01-25T05:49:26;100944.63;;;3.61;100.00
6500;BME280;3283;52.330;9.772;2024-01-25T05:51:51;100943.50;;;3.50;100.00
6500;BME280;3283;52.330;9.772;2024-01-25T05:54:17;100950.56;;;3.55;100.00
6500;BME280;3283;52.330;9.772;2024-01-25T05:56:42;100951.22;;;3.45;100.00
6500;BME280;3283;52.330;9.772;2024-01-25T05:59:08;100949.53;;;3.46;100.00
6500;BME280;3283;52.330;9.772;2024-01-25T06:01:33;100954.78;;;3.49;100.00
6500;BME280;3283;52.330;9.772;2024-01-25T06:03:58;100961.72;;;3.50;100.00
6500;BME280;3283;52.330;9.772;2024-01-25T06:06:24;100963.47;;;3.51;100.00
6500;BME280;3283;52.330;9.772;2024-01-25T06:08:49;100959.31;;;3.59;100.00
6500;BME280;3283;52.330;9.772;2024-01-25T06:11:14;100964.44;;;3.54;100.00
6500;BME280;3283;52.330;9.772;2024-01-25T06:13:40;100972.22;;;3.53;100.00
6500;BME280;3283;52.330;9.772;2024-01-25T06:16:06;100970.66;;;3.61;100.00
6500;BME280;3283;52.330;9.772;2024-01-25T06:18:31;100981.75;;;3.52;100.00
6500;BME280;3283;52.330;9.772;2024-01-25T06:20:57;100977.19;;;3.44;100.00
6500;BME280;3283;52.330;9.772;2024-01-25T06:23:23;100984.38;;;3.54;100.00
6500;BME280;3283;52.330;9.772;2024-01-25T06:25:48;100978.25;;;3.52;100.00
6500;BME280;3283;52.330;9.772;2024-01-25T06:28:14;100980.19;;;3.61;100.00
6500;BME280;3283;52.330;9.772;2024-01-25T06:30:39;100976.66;;;3.58;100.00
6500;BME280;3283;52.330;9.772;2024-01-25T06:33:05;100981.03;;;3.60;100.00
6500;BME280;3283;52.330;9.772;2024-01-25T06:35:30;100992.81;;;3.44;100.00
6500;BME280;3283;52.330;9.772;2024-01-25T06:37:56;100990.31;;;3.48;100.00
6500;BME280;3283;52.330;9.772;2024-01-25T06:40:22;100987.59;;;3.42;100.00
6500;BME280;3283;52.330;9.772;2024-01-25T06:42:47;100998.66;;;3.34;100.00
6500;BME280;3283;52.330;9.772;2024-01-25T06:45:13;101000.41;;;3.33;100.00
6500;BME280;3283;52.330;9.772;2024-01-25T06:47:38;101011.81;;;3.40;100.00
6500;BME280;3283;52.330;9.772;2024-01-25T06:50:04;101007.22;;;3.28;100.00
6500;BME280;3283;52.330;9.772;2024-01-25T06:52:30;101013.22;;;3.25;100.00
6500;BME280;3283;52.330;9.772;2024-01-25T06:54:56;101022.63;;;3.20;100.00
6500;BME280;3283;52.330;9.772;2024-01-25T06:57:22;101015.75;;;3.22;100.00
6500;BME280;3283;52.330;9.772;2024-01-25T06:59:47;101024.41;;;3.21;100.00
6500;BME280;3283;52.330;9.772;2024-01-25T07:02:13;101031.31;;;3.21;100.00
6500;BME280;3283;52.330;9.772;2024-01-25T07:04:38;101028.28;;;3.39;100.00
6500;BME280;3283;52.330;9.772;2024-01-25T07:07:06;101045.28;;;3.24;100.00
6500;BME280;3283;52.330;9.772;2024-01-25T07:09:31;101045.06;;;3.17;100.00
6500;BME280;3283;52.330;9.772;2024-01-25T07:11:56;101046.88;;;3.18;100.00
6500;BME280;3283;52.330;9.772;2024-01-25T07:14:22;101046.06;;;3.22;100.00
6500;BME280;3283;52.330;9.772;2024-01-25T07:16:47;101049.91;;;3.38;100.00
6500;BME280;3283;52.330;9.772;2024-01-25T07:19:13;101051.44;;;3.29;100.00
6500;BME280;3283;52.330;9.772;2024-01-25T07:21:39;101046.16;;;3.25;100.00
6500;BME280;3283;52.330;9.772;2024-01-25T07:24:05;101049.63;;;3.25;100.00
6500;BME280;3283;52.330;9.772;2024-01-25T07:26:31;101060.81;;;3.23;100.00
6500;BME280;3283;52.330;9.772;2024-01-25T07:28:56;101059.81;;;3.16;100.00
6500;BME280;3283;52.330;9.772;2024-01-25T07:31:26;101067.72;;;3.21;100.00
6500;BME280;3283;52.330;9.772;2024-01-25T07:33:52;101060.91;;;3.26;100.00
6500;BME280;3283;52.330;9.772;2024-01-25T07:36:17;101066.28;;;3.32;100.00
6500;BME280;3283;52.330;9.772;2024-01-25T07:38:44;101077.56;;;3.33;100.00
6500;BME280;3283;52.330;9.772;2024-01-25T07:41:09;101070.72;;;3.38;100.00
6500;BME280;3283;52.330;9.772;2024-01-25T07:43:34;101074.09;;;3.34;100.00
6500;BME280;3283;52.330;9.772;2024-01-25T07:46:00;101075.84;;;3.35;100.00
6500;BME280;3283;52.330;9.772;2024-01-25T07:48:25;101074.16;;;3.37;100.00
6500;BME280;3283;52.330;9.772;2024-01-25T07:50:51;101073.41;;;3.41;100.00
6500;BME280;3283;52.330;9.772;2024-01-25T07:53:16;101082.75;;;3.33;100.00
6500;BME280;3283;52.330;9.772;2024-01-25T07:55:41;101078.09;;;3.19;100.00
6500;BME280;3283;52.330;9.772;2024-01-25T07:58:07;101084.00;;;3.12;100.00
6500;BME280;3283;52.330;9.772;2024-01-25T08:00:33;101086.41;;;3.41;100.00
6500;BME280;3283;52.330;9.772;2024-01-25T08:02:58;101095.13;;;3.43;100.00
6500;BME280;3283;52.330;9.772;2024-01-25T08:05:23;101091.50;;;3.36;100.00
6500;BME280;3283;52.330;9.772;2024-01-25T08:07:49;101097.75;;;3.44;100.00
6500;BME280;3283;52.330;9.772;2024-01-25T08:10:15;101099.41;;;3.39;100.00
6500;BME280;3283;52.330;9.772;2024-01-25T08:12:41;101101.88;;;3.35;100.00
6500;BME280;3283;52.330;9.772;2024-01-25T08:15:09;101110.63;;;3.38;100.00
6500;BME280;3283;52.330;9.772;2024-01-25T08:17:37;101105.94;;;3.60;100.00
6500;BME280;3283;52.330;9.772;2024-01-25T08:20:03;101101.16;;;3.40;100.00
6500;BME280;3283;52.330;9.772;2024-01-25T08:22:31;101093.41;;;3.43;100.00
6500;BME280;3283;52.330;9.772;2024-01-25T08:24:56;101106.56;;;3.49;100.00
6500;BME280;3283;52.330;9.772;2024-01-25T08:27:22;101104.06;;;3.54;100.00
6500;BME280;3283;52.330;9.772;2024-01-25T08:29:47;101105.75;;;3.52;100.00
6500;BME280;3283;52.330;9.772;2024-01-25T08:32:12;101116.63;;;3.36;100.00
6500;BME280;3283;52.330;9.772;2024-01-25T08:34:38;101109.00;;;3.43;100.00
6500;BME280;3283;52.330;9.772;2024-01-25T08:37:03;101115.78;;;3.37;100.00
6500;BME280;3283;52.330;9.772;2024-01-25T08:39:29;101116.06;;;3.47;100.00
6500;BME280;3283;52.330;9.772;2024-01-25T08:41:54;101127.72;;;3.28;100.00
6500;BME280;3283;52.330;9.772;2024-01-25T08:44:22;101115.72;;;3.34;100.00
6500;BME280;3283;52.330;9.772;2024-01-25T08:46:47;101135.50;;;3.27;100.00
6500;BME280;3283;52.330;9.772;2024-01-25T08:49:13;101135.13;;;3.46;100.00
6500;BME280;3283;52.330;9.772;2024-01-25T08:51:39;101132.72;;;3.55;100.00
6500;BME280;3283;52.330;9.772;2024-01-25T08:54:04;101133.66;;;3.59;100.00
6500;BME280;3283;52.330;9.772;2024-01-25T08:56:29;101125.16;;;3.66;100.00
6500;BME280;3283;52.330;9.772;2024-01-25T08:58:55;101128.59;;;3.65;100.00
6500;BME280;3283;52.330;9.772;2024-01-25T09:01:20;101131.75;;;3.52;100.00
6500;BME280;3283;52.330;9.772;2024-01-25T09:03:46;101129.94;;;3.48;100.00
6500;BME280;3283;52.330;9.772;2024-01-25T09:06:11;101133.13;;;3.36;100.00
6500;BME280;3283;52.330;9.772;2024-01-25T09:08:37;101141.25;;;3.50;100.00
6500;BME280;3283;52.330;9.772;2024-01-25T09:11:03;101138.25;;;3.69;100.00
6500;BME280;3283;52.330;9.772;2024-01-25T09:13:28;101149.66;;;3.74;100.00
6500;BME280;3283;52.330;9.772;2024-01-25T09:15:55;101142.81;;;3.79;100.00
6500;BME280;3283;52.330;9.772;2024-01-25T09:18:21;101157.00;;;3.92;100.00
6500;BME280;3283;52.330;9.772;2024-01-25T09:20:46;101171.03;;;3.99;100.00
6500;BME280;3283;52.330;9.772;2024-01-25T09:23:14;101166.50;;;3.90;100.00
6500;BME280;3283;52.330;9.772;2024-01-25T09:25:42;101172.44;;;3.84;100.00
6500;BME280;3283;52.330;9.772;2024-01-25T09:28:07;101167.38;;;3.91;100.00
6500;BME280;3283;52.330;9.772;2024-01-25T09:30:33;101165.53;;;4.24;100.00
6500;BME280;3283;52.330;9.772;2024-01-25T09:32:58;101171.00;;;3.96;100.00
6500;BME280;3283;52.330;9.772;2024-01-25T09:35:24;101169.47;;;4.05;100.00
6500;BME280;3283;52.330;9.772;2024-01-25T09:37:51;101163.19;;;3.97;100.00
6500;BME280;3283;52.330;9.772;2024-01-25T09:40:18;101180.69;;;4.03;100.00
6500;BME280;3283;52.330;9.772;2024-01-25T09:42:47;101175.97;;;4.26;100.00
6500;BME280;3283;52.330;9.772;2024-01-25T09:45:17;101178.16;;;4.47;100.00
6500;BME280;3283;52.330;9.772;2024-01-25T09:47:44;101185.00;;;4.41;100.00
6500;BME280;3283;52.330;9.772;2024-01-25T09:50:09;101183.22;;;4.39;100.00
6500;BME280;3283;52.330;9.772;2024-01-25T09:52:35;101182.47;;;4.45;100.00
6500;BME280;3283;52.330;9.772;2024-01-25T09:55:01;101186.16;;;4.54;100.00
6500;BME280;3283;52.330;9.772;2024-01-25T09:57:28;101184.81;;;4.32;100.00
6500;BME280;3283;52.330;9.772;2024-01-25T09:59:55;101185.53;;;4.25;100.00
6500;BME280;3283;52.330;9.772;2024-01-25T10:02:20;101186.31;;;3.83;100.00
6500;BME280;3283;52.330;9.772;2024-01-25T10:04:50;101188.44;;;4.01;100.00
6500;BME280;3283;52.330;9.772;2024-01-25T10:07:35;101189.28;;;3.99;100.00
6500;BME280;3283;52.330;9.772;2024-01-25T10:10:00;101184.75;;;3.92;100.00
6500;BME280;3283;52.330;9.772;2024-01-25T10:12:25;101170.66;;;4.21;100.00
6500;BME280;3283;52.330;9.772;2024-01-25T10:14:51;101179.06;;;4.49;100.00
6500;BME280;3283;52.330;9.772;2024-01-25T10:17:16;101184.53;;;4.61;100.00
6500;BME280;3283;52.330;9.772;2024-01-25T10:19:45;101188.16;;;4.67;100.00
6500;BME280;3283;52.330;9.772;2024-01-25T10:22:10;101168.81;;;4.58;100.00
6500;BME280;3283;52.330;9.772;2024-01-25T10:24:38;101185.63;;;4.72;100.00
6500;BME280;3283;52.330;9.772;2024-01-25T10:27:04;101192.06;;;4.46;100.00
6500;BME280;3283;52.330;9.772;2024-01-25T10:29:29;101179.75;;;4.40;100.00
6500;BME280;3283;52.330;9.772;2024-01-25T10:31:55;101188.88;;;4.60;100.00
6500;BME280;3283;52.330;9.772;2024-01-25T10:34:20;101177.63;;;4.63;100.00
6500;BME280;3283;52.330;9.772;2024-01-25T10:36:47;101181.13;;;4.65;100.00
6500;BME280;3283;52.330;9.772;2024-01-25T10:39:15;101185.94;;;4.87;100.00
6500;BME280;3283;52.330;9.772;2024-01-25T10:41:42;101187.75;;;4.93;100.00
6500;BME280;3283;52.330;9.772;2024-01-25T10:44:09;101187.03;;;5.00;100.00
6500;BME280;3283;52.330;9.772;2024-01-25T10:46:36;101191.16;;;4.87;100.00
6500;BME280;3283;52.330;9.772;2024-01-25T10:49:02;101184.16;;;5.33;100.00
6500;BME280;3283;52.330;9.772;2024-01-25T10:51:28;101191.19;;;4.89;100.00
6500;BME280;3283;52.330;9.772;2024-01-25T10:53:54;101191.38;;;5.00;100.00
6500;BME280;3283;52.330;9.772;2024-01-25T10:56:20;101202.91;;;4.26;100.00
6500;BME280;3283;52.330;9.772;2024-01-25T10:58:46;101203.44;;;4.10;100.00
6500;BME280;3283;52.330;9.772;2024-01-25T11:01:11;101202.75;;;4.19;100.00
6500;BME280;3283;52.330;9.772;2024-01-25T11:03:39;101206.91;;;4.10;100.00
6500;BME280;3283;52.330;9.772;2024-01-25T11:06:07;101204.53;;;4.21;100.00
6500;BME280;3283;52.330;9.772;2024-01-25T11:08:34;101197.75;;;4.29;100.00
6500;BME280;3283;52.330;9.772;2024-01-25T11:11:03;101206.25;;;4.21;100.00
6500;BME280;3283;52.330;9.772;2024-01-25T11:13:31;101215.09;;;3.90;100.00
6500;BME280;3283;52.330;9.772;2024-01-25T11:15:57;101210.22;;;4.03;100.00
6500;BME280;3283;52.330;9.772;2024-01-25T11:18:25;101204.84;;;4.36;100.00
6500;BME280;3283;52.330;9.772;2024-01-25T11:20:51;101199.66;;;4.36;100.00
6500;BME280;3283;52.330;9.772;2024-01-25T11:23:16;101190.13;;;4.37;100.00
6500;BME280;3283;52.330;9.772;2024-01-25T11:25:45;101200.31;;;4.26;100.00
6500;BME280;3283;52.330;9.772;2024-01-25T11:28:13;101205.88;;;4.02;100.00
6500;BME280;3283;52.330;9.772;2024-01-25T11:30:39;101213.91;;;4.13;100.00
6500;BME280;3283;52.330;9.772;2024-01-25T11:33:08;101202.88;;;4.23;100.00
6500;BME280;3283;52.330;9.772;2024-01-25T11:35:35;101198.44;;;4.60;100.00
6500;BME280;3283;52.330;9.772;2024-01-25T11:38:00;101197.03;;;4.36;100.00
6500;BME280;3283;52.330;9.772;2024-01-25T11:40:26;101197.19;;;4.43;100.00
6500;BME280;3283;52.330;9.772;2024-01-25T11:42:53;101193.63;;;4.37;100.00
6500;BME280;3283;52.330;9.772;2024-01-25T11:45:19;101186.06;;;4.93;100.00
6500;BME280;3283;52.330;9.772;2024-01-25T11:47:44;101186.25;;;5.04;100.00
6500;BME280;3283;52.330;9.772;2024-01-25T11:50:12;101187.56;;;4.82;100.00
6500;BME280;3283;52.330;9.772;2024-01-25T11:52:38;101187.19;;;4.64;100.00
6500;BME280;3283;52.330;9.772;2024-01-25T11:55:05;101188.47;;;4.84;100.00
6500;BME280;3283;52.330;9.772;2024-01-25T11:57:33;101189.88;;;4.67;100.00
6500;BME280;3283;52.330;9.772;2024-01-25T11:59:59;101190.44;;;4.96;100.00
6500;BME280;3283;52.330;9.772;2024-01-25T12:02:26;101191.97;;;4.85;100.00
6500;BME280;3283;52.330;9.772;2024-01-25T12:04:52;101185.34;;;5.01;100.00
6500;BME280;3283;52.330;9.772;2024-01-25T12:07:20;101189.47;;;5.36;100.00
6500;BME280;3283;52.330;9.772;2024-01-25T12:09:57;101186.84;;;4.89;100.00
6500;BME280;3283;52.330;9.772;2024-01-25T12:12:22;101189.31;;;4.39;100.00
6500;BME280;3283;52.330;9.772;2024-01-25T12:14:47;101177.59;;;4.61;100.00
6500;BME280;3283;52.330;9.772;2024-01-25T12:17:13;101177.03;;;5.21;100.00
6500;BME280;3283;52.330;9.772;2024-01-25T12:19:39;101175.66;;;5.43;100.00
6500;BME280;3283;52.330;9.772;2024-01-25T12:22:04;101166.19;;;5.50;100.00
6500;BME280;3283;52.330;9.772;2024-01-25T12:24:30;101156.66;;;5.01;100.00
6500;BME280;3283;52.330;9.772;2024-01-25T12:26:56;101171.31;;;5.44;100.00
6500;BME280;3283;52.330;9.772;2024-01-25T12:29:21;101164.69;;;5.64;100.00
6500;BME280;3283;52.330;9.772;2024-01-25T12:31:47;101161.94;;;5.57;100.00
6500;BME280;3283;52.330;9.772;2024-01-25T12:34:15;101153.44;;;5.70;100.00
6500;BME280;3283;52.330;9.772;2024-01-25T12:36:43;101154.94;;;5.54;100.00
6500;BME280;3283;52.330;9.772;2024-01-25T12:39:09;101158.41;;;5.55;100.00
6500;BME280;3283;52.330;9.772;2024-01-25T12:41:36;101156.63;;;5.50;100.00
6500;BME280;3283;52.330;9.772;2024-01-25T12:44:01;101158.31;;;5.48;100.00
6500;BME280;3283;52.330;9.772;2024-01-25T12:46:27;101157.38;;;5.43;100.00
6500;BME280;3283;52.330;9.772;2024-01-25T12:48:52;101161.94;;;5.57;100.00
6500;BME280;3283;52.330;9.772;2024-01-25T12:51:20;101163.44;;;5.42;100.00
6500;BME280;3283;52.330;9.772;2024-01-25T12:53:47;101164.94;;;5.28;100.00
6500;BME280;3283;52.330;9.772;2024-01-25T12:56:13;101161.44;;;5.26;100.00
6500;BME280;3283;52.330;9.772;2024-01-25T12:58:38;101163.59;;;5.51;100.00
6500;BME280;3283;52.330;9.772;2024-01-25T13:01:04;101163.94;;;5.73;100.00
6500;BME280;3283;52.330;9.772;2024-01-25T13:03:30;101163.84;;;6.23;100.00